sensor_id;sensor_type;location;lat;lon;timestamp;P1;durP1;ratioP1;P2;durP2;ratioP2
22268;SDS011;11303;50.772;19.670;2023-04-03T00:01:03;8.30;;;5.15;;
22268;SDS011;11303;50.772;19.670;2023-04-03T00:03:05;11.07;;;6.13;;
22268;SDS011;11303;50.772;19.670;2023-04-03T00:05:06;12.38;;;7.95;;
22268;SDS011;11303;50.772;19.670;2023-04-03T00:07:08;17.88;;;11.10;;
22268;SDS011;11303;50.772;19.670;2023-04-03T00:09:09;16.52;;;11.20;;
22268;SDS011;11303;50.772;19.670;2023-04-03T00:11:11;18.95;;;9.98;;
22268;SDS011;11303;50.772;19.670;2023-04-03T00:13:13;17.38;;;9.52;;
22268;SDS011;11303;50.772;19.670;2023-04-03T00:15:14;18.20;;;11.77;;
22268;SDS011;11303;50.772;19.670;2023-04-03T00:17:15;10.98;;;6.22;;
22268;SDS011;11303;50.772;19.670;2023-04-03T00:19:17;9.70;;;6.47;;
22268;SDS011;11303;50.772;19.670;2023-04-03T00:21:18;11.93;;;6.75;;
22268;SDS011;11303;50.772;19.670;2023-04-03T00:23:20;14.80;;;9.75;;
22268;SDS011;11303;50.772;19.670;2023-04-03T00:25:21;21.23;;;13.65;;
22268;SDS011;11303;50.772;19.670;2023-04-03T00:27:23;17.58;;;10.02;;
22268;SDS011;11303;50.772;19.670;2023-04-03T00:29:24;21.80;;;14.48;;
22268;SDS011;11303;50.772;19.670;2023-04-03T00:31:26;20.88;;;12.40;;
22268;SDS011;11303;50.772;19.670;2023-04-03T00:33:27;23.27;;;13.77;;
22268;SDS011;11303;50.772;19.670;2023-04-03T00:35:29;22.67;;;13.85;;
22268;SDS011;11303;50.772;19.670;2023-04-03T00:37:30;23.33;;;12.85;;
22268;SDS011;11303;50.772;19.670;2023-04-03T00:39:32;16.73;;;10.95;;
22268;SDS011;11303;50.772;19.670;2023-04-03T00:41:33;15.10;;;9.52;;
22268;SDS011;11303;50.772;19.670;2023-04-03T00:43:36;22.42;;;13.02;;
22268;SDS011;11303;50.772;19.670;2023-04-03T00:45:38;16.58;;;9.43;;
22268;SDS011;11303;50.772;19.670;2023-04-03T00:47:41;19.38;;;10.65;;
22268;SDS011;11303;50.772;19.670;2023-04-03T00:49:43;13.45;;;6.97;;
22268;SDS011;11303;50.772;19.670;2023-04-03T00:51:45;12.07;;;7.32;;
22268;SDS011;11303;50.772;19.670;2023-04-03T00:53:49;13.02;;;6.28;;
22268;SDS011;11303;50.772;19.670;2023-04-03T00:55:52;6.95;;;3.92;;
22268;SDS011;11303;50.772;19.670;2023-04-03T00:57:54;10.05;;;6.57;;
22268;SDS011;11303;50.772;19.670;2023-04-03T00:59:59;13.02;;;8.38;;
22268;SDS011;11303;50.772;19.670;2023-04-03T01:02:02;12.98;;;8.70;;
22268;SDS011;11303;50.772;19.670;2023-04-03T01:04:04;6.50;;;3.42;;
22268;SDS011;11303;50.772;19.670;2023-04-03T01:06:07;17.80;;;9.77;;
22268;SDS011;11303;50.772;19.670;2023-04-03T01:08:08;5.95;;;4.40;;
22268;SDS011;11303;50.772;19.670;2023-04-03T01:10:11;7.32;;;4.78;;
22268;SDS011;11303;50.772;19.670;2023-04-03T01:12:27;10.32;;;4.88;;
22268;SDS011;11303;50.772;19.670;2023-04-03T01:14:29;21.17;;;9.77;;
22268;SDS011;11303;50.772;19.670;2023-04-03T01:16:31;11.20;;;6.32;;
22268;SDS011;11303;50.772;19.670;2023-04-03T01:18:34;7.55;;;4.75;;
22268;SDS011;11303;50.772;19.670;2023-04-03T01:20:42;11.15;;;4.72;;
22268;SDS011;11303;50.772;19.670;2023-04-03T01:24:53;4.38;;;3.50;;
22268;SDS011;11303;50.772;19.670;2023-04-03T01:26:55;17.70;;;8.27;;
22268;SDS011;11303;50.772;19.670;2023-04-03T01:28:58;7.50;;;4.78;;
22268;SDS011;11303;50.772;19.670;2023-04-03T01:33:01;9.38;;;6.82;;
22268;SDS011;11303;50.772;19.670;2023-04-03T01:35:03;13.55;;;6.28;;
22268;SDS011;11303;50.772;19.670;2023-04-03T01:37:04;11.05;;;6.57;;
22268;SDS011;11303;50.772;19.670;2023-04-03T01:39:06;12.68;;;5.43;;
22268;SDS011;11303;50.772;19.670;2023-04-03T01:41:07;5.70;;;2.92;;
22268;SDS011;11303;50.772;19.670;2023-04-03T01:43:09;7.10;;;4.07;;
22268;SDS011;11303;50.772;19.670;2023-04-03T01:45:11;9.23;;;4.25;;
22268;SDS011;11303;50.772;19.670;2023-04-03T01:47:12;11.63;;;4.97;;
22268;SDS011;11303;50.772;19.670;2023-04-03T01:49:14;4.20;;;3.10;;
22268;SDS011;11303;50.772;19.670;2023-04-03T01:51:15;5.82;;;3.45;;
22268;SDS011;11303;50.772;19.670;2023-04-03T01:53:17;8.48;;;4.20;;
22268;SDS011;11303;50.772;19.670;2023-04-03T01:55:19;8.80;;;3.90;;
22268;SDS011;11303;50.772;19.670;2023-04-03T01:57:20;8.50;;;4.32;;
22268;SDS011;11303;50.772;19.670;2023-04-03T01:59:22;8.98;;;4.97;;
22268;SDS011;11303;50.772;19.670;2023-04-03T02:01:24;4.95;;;2.35;;
22268;SDS011;11303;50.772;19.670;2023-04-03T02:03:27;7.50;;;2.80;;
22268;SDS011;11303;50.772;19.670;2023-04-03T02:05:29;11.93;;;4.90;;
22268;SDS011;11303;50.772;19.670;2023-04-03T02:07:30;4.28;;;2.85;;
22268;SDS011;11303;50.772;19.670;2023-04-03T02:09:32;8.63;;;5.32;;
22268;SDS011;11303;50.772;19.670;2023-04-03T02:11:33;6.15;;;3.00;;
22268;SDS011;11303;50.772;19.670;2023-04-03T02:13:34;3.80;;;2.92;;
22268;SDS011;11303;50.772;19.670;2023-04-03T02:15:39;11.35;;;4.97;;
22268;SDS011;11303;50.772;19.670;2023-04-03T02:17:41;7.72;;;2.50;;
22268;SDS011;11303;50.772;19.670;2023-04-03T02:19:42;7.57;;;3.35;;
22268;SDS011;11303;50.772;19.670;2023-04-03T02:21:44;12.63;;;7.28;;
22268;SDS011;11303;50.772;19.670;2023-04-03T02:23:45;11.45;;;5.90;;
22268;SDS011;11303;50.772;19.670;2023-04-03T02:25:47;6.45;;;3.47;;
22268;SDS011;11303;50.772;19.670;2023-04-03T02:27:50;12.73;;;5.38;;
22268;SDS011;11303;50.772;19.670;2023-04-03T02:29:51;15.05;;;6.32;;
22268;SDS011;11303;50.772;19.670;2023-04-03T02:31:53;10.07;;;5.13;;
22268;SDS011;11303;50.772;19.670;2023-04-03T02:33:54;9.75;;;4.15;;
22268;SDS011;11303;50.772;19.670;2023-04-03T02:35:56;8.70;;;2.95;;
22268;SDS011;11303;50.772;19.670;2023-04-03T02:37:58;4.97;;;2.55;;
22268;SDS011;11303;50.772;19.670;2023-04-03T02:39:59;10.88;;;5.95;;
22268;SDS011;11303;50.772;19.670;2023-04-03T02:42:01;4.47;;;3.35;;
22268;SDS011;11303;50.772;19.670;2023-04-03T02:44:03;7.65;;;4.10;;
22268;SDS011;11303;50.772;19.670;2023-04-03T02:46:05;34.78;;;8.43;;
22268;SDS011;11303;50.772;19.670;2023-04-03T02:48:07;9.43;;;3.40;;
22268;SDS011;11303;50.772;19.670;2023-04-03T02:50:08;8.15;;;3.05;;
22268;SDS011;11303;50.772;19.670;2023-04-03T02:52:10;6.38;;;2.90;;
22268;SDS011;11303;50.772;19.670;2023-04-03T02:54:11;5.82;;;2.30;;
22268;SDS011;11303;50.772;19.670;2023-04-03T02:56:13;7.25;;;3.00;;
22268;SDS011;11303;50.772;19.670;2023-04-03T02:58:14;3.47;;;2.22;;
22268;SDS011;11303;50.772;19.670;2023-04-03T03:00:16;3.47;;;2.20;;
22268;SDS011;11303;50.772;19.670;2023-04-03T03:02:18;6.38;;;2.15;;
22268;SDS011;11303;50.772;19.670;2023-04-03T03:04:19;3.13;;;1.60;;
22268;SDS011;11303;50.772;19.670;2023-04-03T03:06:21;4.88;;;2.42;;
22268;SDS011;11303;50.772;19.670;2023-04-03T03:08:22;4.93;;;2.70;;
22268;SDS011;11303;50.772;19.670;2023-04-03T03:10:23;5.43;;;3.08;;
22268;SDS011;11303;50.772;19.670;2023-04-03T03:12:25;3.38;;;2.08;;
22268;SDS011;11303;50.772;19.670;2023-04-03T03:14:27;6.18;;;2.55;;
22268;SDS011;11303;50.772;19.670;2023-04-03T03:16:28;6.63;;;2.38;;
22268;SDS011;11303;50.772;19.670;2023-04-03T03:18:30;4.13;;;1.80;;
22268;SDS011;11303;50.772;19.670;2023-04-03T03:20:31;2.83;;;1.40;;
22268;SDS011;11303;50.772;19.670;2023-04-03T03:22:34;3.10;;;2.00;;
22268;SDS011;11303;50.772;19.670;2023-04-03T03:24:35;4.28;;;1.40;;
22268;SDS011;11303;50.772;19.670;2023-04-03T03:26:37;3.53;;;1.83;;
22268;SDS011;11303;50.772;19.670;2023-04-03T03:28:39;2.60;;;1.63;;
22268;SDS011;11303;50.772;19.670;2023-04-03T03:30:40;6.68;;;2.80;;
22268;SDS011;11303;50.772;19.670;2023-04-03T03:32:42;4.57;;;2.05;;
22268;SDS011;11303;50.772;19.670;2023-04-03T03:34:43;6.40;;;2.22;;
22268;SDS011;11303;50.772;19.670;2023-04-03T03:36:45;3.40;;;1.60;;
22268;SDS011;11303;50.772;19.670;2023-04-03T03:38:46;1.92;;;1.50;;
22268;SDS011;11303;50.772;19.670;2023-04-03T03:40:48;4.00;;;1.67;;
22268;SDS011;11303;50.772;19.670;2023-04-03T03:42:50;2.70;;;1.30;;
22268;SDS011;11303;50.772;19.670;2023-04-03T03:44:51;7.20;;;2.85;;
22268;SDS011;11303;50.772;19.670;2023-04-03T03:46:53;3.13;;;1.23;;
22268;SDS011;11303;50.772;19.670;2023-04-03T03:48:54;3.13;;;1.58;;
22268;SDS011;11303;50.772;19.670;2023-04-03T03:50:56;11.13;;;2.45;;
22268;SDS011;11303;50.772;19.670;2023-04-03T03:52:57;9.88;;;1.77;;
22268;SDS011;11303;50.772;19.670;2023-04-03T03:54:59;3.95;;;1.65;;
22268;SDS011;11303;50.772;19.670;2023-04-03T03:57:00;3.65;;;1.85;;
22268;SDS011;11303;50.772;19.670;2023-04-03T03:59:02;5.32;;;2.17;;
22268;SDS011;11303;50.772;19.670;2023-04-03T04:01:04;3.22;;;1.88;;
22268;SDS011;11303;50.772;19.670;2023-04-03T04:03:07;2.78;;;1.40;;
22268;SDS011;11303;50.772;19.670;2023-04-03T04:05:08;4.80;;;2.40;;
22268;SDS011;11303;50.772;19.670;2023-04-03T04:07:10;2.58;;;1.40;;
22268;SDS011;11303;50.772;19.670;2023-04-03T04:09:12;5.55;;;1.92;;
22268;SDS011;11303;50.772;19.670;2023-04-03T04:11:13;2.30;;;1.35;;
22268;SDS011;11303;50.772;19.670;2023-04-03T04:13:15;6.68;;;2.47;;
22268;SDS011;11303;50.772;19.670;2023-04-03T04:15:16;1.33;;;1.08;;
22268;SDS011;11303;50.772;19.670;2023-04-03T04:17:18;2.38;;;1.33;;
22268;SDS011;11303;50.772;19.670;2023-04-03T04:19:20;3.65;;;1.63;;
22268;SDS011;11303;50.772;19.670;2023-04-03T04:21:22;4.38;;;2.42;;
22268;SDS011;11303;50.772;19.670;2023-04-03T04:23:24;5.43;;;2.20;;
22268;SDS011;11303;50.772;19.670;2023-04-03T04:25:25;4.97;;;1.80;;
22268;SDS011;11303;50.772;19.670;2023-04-03T04:27:27;2.42;;;1.73;;
22268;SDS011;11303;50.772;19.670;2023-04-03T04:29:28;4.78;;;2.03;;
22268;SDS011;11303;50.772;19.670;2023-04-03T04:31:30;4.55;;;2.08;;
22268;SDS011;11303;50.772;19.670;2023-04-03T04:33:31;6.75;;;2.00;;
22268;SDS011;11303;50.772;19.670;2023-04-03T04:35:33;4.13;;;1.83;;
22268;SDS011;11303;50.772;19.670;2023-04-03T04:37:35;4.80;;;1.90;;
22268;SDS011;11303;50.772;19.670;2023-04-03T04:39:36;6.25;;;2.40;;
22268;SDS011;11303;50.772;19.670;2023-04-03T04:41:38;4.00;;;1.52;;
22268;SDS011;11303;50.772;19.670;2023-04-03T04:43:39;3.70;;;1.55;;
22268;SDS011;11303;50.772;19.670;2023-04-03T04:45:41;2.83;;;1.55;;
22268;SDS011;11303;50.772;19.670;2023-04-03T04:47:43;1.75;;;1.13;;
22268;SDS011;11303;50.772;19.670;2023-04-03T04:49:44;3.35;;;1.17;;
22268;SDS011;11303;50.772;19.670;2023-04-03T04:51:48;2.67;;;1.58;;
22268;SDS011;11303;50.772;19.670;2023-04-03T04:53:52;9.07;;;2.05;;
22268;SDS011;11303;50.772;19.670;2023-04-03T04:55:56;4.00;;;1.85;;
22268;SDS011;11303;50.772;19.670;2023-04-03T04:57:57;3.55;;;1.30;;
22268;SDS011;11303;50.772;19.670;2023-04-03T04:59:59;3.30;;;1.55;;
22268;SDS011;11303;50.772;19.670;2023-04-03T05:02:00;2.67;;;1.30;;
22268;SDS011;11303;50.772;19.670;2023-04-03T05:04:02;3.17;;;1.65;;
22268;SDS011;11303;50.772;19.670;2023-04-03T05:06:04;5.93;;;2.42;;
22268;SDS011;11303;50.772;19.670;2023-04-03T05:08:06;4.88;;;2.10;;
22268;SDS011;11303;50.772;19.670;2023-04-03T05:10:09;2.10;;;1.23;;
22268;SDS011;11303;50.772;19.670;2023-04-03T05:12:10;5.45;;;2.72;;
22268;SDS011;11303;50.772;19.670;2023-04-03T05:14:12;10.32;;;2.35;;
22268;SDS011;11303;50.772;19.670;2023-04-03T05:16:13;4.75;;;1.73;;
22268;SDS011;11303;50.772;19.670;2023-04-03T05:18:15;4.50;;;1.95;;
22268;SDS011;11303;50.772;19.670;2023-04-03T05:20:16;0.80;;;0.75;;
22268;SDS011;11303;50.772;19.670;2023-04-03T05:22:18;4.88;;;2.05;;
22268;SDS011;11303;50.772;19.670;2023-04-03T05:24:19;8.88;;;3.38;;
22268;SDS011;11303;50.772;19.670;2023-04-03T05:26:21;3.97;;;2.35;;
22268;SDS011;11303;50.772;19.670;2023-04-03T05:28:22;4.05;;;1.65;;
22268;SDS011;11303;50.772;19.670;2023-04-03T05:30:24;3.45;;;1.73;;
22268;SDS011;11303;50.772;19.670;2023-04-03T05:32:25;1.63;;;1.20;;
22268;SDS011;11303;50.772;19.670;2023-04-03T05:34:28;2.97;;;1.20;;
22268;SDS011;11303;50.772;19.670;2023-04-03T05:36:30;5.43;;;2.13;;
22268;SDS011;11303;50.772;19.670;2023-04-03T05:38:32;1.90;;;1.08;;
22268;SDS011;11303;50.772;19.670;2023-04-03T05:40:33;3.30;;;1.75;;
22268;SDS011;11303;50.772;19.670;2023-04-03T05:42:35;5.97;;;2.67;;
22268;SDS011;11303;50.772;19.670;2023-04-03T05:44:37;1.23;;;0.80;;
22268;SDS011;11303;50.772;19.670;2023-04-03T05:46:38;5.43;;;1.00;;
22268;SDS011;11303;50.772;19.670;2023-04-03T05:48:39;2.85;;;1.38;;
22268;SDS011;11303;50.772;19.670;2023-04-03T05:50:41;2.50;;;1.08;;
22268;SDS011;11303;50.772;19.670;2023-04-03T05:52:44;2.72;;;1.45;;
22268;SDS011;11303;50.772;19.670;2023-04-03T05:54:46;6.68;;;2.38;;
22268;SDS011;11303;50.772;19.670;2023-04-03T05:56:49;5.00;;;1.48;;
22268;SDS011;11303;50.772;19.670;2023-04-03T05:58:51;5.88;;;1.90;;
22268;SDS011;11303;50.772;19.670;2023-04-03T06:00:52;2.22;;;1.50;;
22268;SDS011;11303;50.772;19.670;2023-04-03T06:02:54;4.47;;;1.58;;
22268;SDS011;11303;50.772;19.670;2023-04-03T06:04:55;1.88;;;1.23;;
22268;SDS011;11303;50.772;19.670;2023-04-03T06:06:57;5.63;;;2.10;;
22268;SDS011;11303;50.772;19.670;2023-04-03T06:08:59;2.50;;;1.77;;
22268;SDS011;11303;50.772;19.670;2023-04-03T06:11:03;6.85;;;1.90;;
22268;SDS011;11303;50.772;19.670;2023-04-03T06:13:05;8.50;;;2.75;;
22268;SDS011;11303;50.772;19.670;2023-04-03T06:15:07;2.85;;;1.20;;
22268;SDS011;11303;50.772;19.670;2023-04-03T06:17:11;7.90;;;1.63;;
22268;SDS011;11303;50.772;19.670;2023-04-03T06:19:13;3.35;;;1.55;;
22268;SDS011;11303;50.772;19.670;2023-04-03T06:21:15;3.42;;;2.00;;
22268;SDS011;11303;50.772;19.670;2023-04-03T06:23:16;7.70;;;2.45;;
22268;SDS011;11303;50.772;19.670;2023-04-03T06:25:18;8.60;;;1.67;;
22268;SDS011;11303;50.772;19.670;2023-04-03T06:27:20;3.03;;;1.63;;
22268;SDS011;11303;50.772;19.670;2023-04-03T06:29:21;3.70;;;1.63;;
22268;SDS011;11303;50.772;19.670;2023-04-03T06:31:23;9.98;;;1.67;;
22268;SDS011;11303;50.772;19.670;2023-04-03T06:33:25;2.03;;;1.20;;
22268;SDS011;11303;50.772;19.670;2023-04-03T06:35:27;3.92;;;1.60;;
22268;SDS011;11303;50.772;19.670;2023-04-03T06:37:29;2.42;;;1.58;;
22268;SDS011;11303;50.772;19.670;2023-04-03T06:39:31;2.72;;;1.60;;
22268;SDS011;11303;50.772;19.670;2023-04-03T06:41:33;1.75;;;1.05;;
22268;SDS011;11303;50.772;19.670;2023-04-03T06:43:37;2.22;;;1.30;;
22268;SDS011;11303;50.772;19.670;2023-04-03T06:45:38;3.70;;;0.77;;
22268;SDS011;11303;50.772;19.670;2023-04-03T06:47:40;4.43;;;1.92;;
22268;SDS011;11303;50.772;19.670;2023-04-03T06:49:42;2.65;;;1.52;;
22268;SDS011;11303;50.772;19.670;2023-04-03T06:51:43;2.50;;;1.73;;
22268;SDS011;11303;50.772;19.670;2023-04-03T06:53:46;8.45;;;2.60;;
22268;SDS011;11303;50.772;19.670;2023-04-03T06:55:48;4.88;;;2.30;;
22268;SDS011;11303;50.772;19.670;2023-04-03T06:57:49;3.10;;;1.77;;
22268;SDS011;11303;50.772;19.670;2023-04-03T06:59:51;6.07;;;2.40;;
22268;SDS011;11303;50.772;19.670;2023-04-03T07:01:52;6.63;;;1.92;;
22268;SDS011;11303;50.772;19.670;2023-04-03T07:03:54;6.20;;;1.55;;
22268;SDS011;11303;50.772;19.670;2023-04-03T07:05:56;4.53;;;1.63;;
22268;SDS011;11303;50.772;19.670;2023-04-03T07:07:57;2.97;;;2.28;;
22268;SDS011;11303;50.772;19.670;2023-04-03T07:09:59;4.68;;;1.73;;
22268;SDS011;11303;50.772;19.670;2023-04-03T07:12:01;4.95;;;1.83;;
22268;SDS011;11303;50.772;19.670;2023-04-03T07:14:02;4.22;;;1.50;;
22268;SDS011;11303;50.772;19.670;2023-04-03T07:16:04;3.50;;;2.33;;
22268;SDS011;11303;50.772;19.670;2023-04-03T07:18:06;3.33;;;2.20;;
22268;SDS011;11303;50.772;19.670;2023-04-03T07:20:08;8.60;;;3.15;;
22268;SDS011;11303;50.772;19.670;2023-04-03T07:22:10;25.35;;;5.18;;
22268;SDS011;11303;50.772;19.670;2023-04-03T07:24:12;10.77;;;2.97;;
22268;SDS011;11303;50.772;19.670;2023-04-03T07:26:17;5.35;;;2.65;;
22268;SDS011;11303;50.772;19.670;2023-04-03T07:28:19;6.97;;;2.83;;
22268;SDS011;11303;50.772;19.670;2023-04-03T07:30:21;7.82;;;3.25;;
22268;SDS011;11303;50.772;19.670;2023-04-03T07:32:23;8.98;;;2.92;;
22268;SDS011;11303;50.772;19.670;2023-04-03T07:34:25;9.10;;;2.67;;
22268;SDS011;11303;50.772;19.670;2023-04-03T07:36:26;4.93;;;1.85;;
22268;SDS011;11303;50.772;19.670;2023-04-03T07:38:29;6.05;;;2.75;;
22268;SDS011;11303;50.772;19.670;2023-04-03T07:40:30;5.13;;;2.40;;
22268;SDS011;11303;50.772;19.670;2023-04-03T07:42:32;3.55;;;1.95;;
22268;SDS011;11303;50.772;19.670;2023-04-03T07:44:33;2.65;;;1.80;;
22268;SDS011;11303;50.772;19.670;2023-04-03T07:46:35;3.20;;;1.85;;
22268;SDS011;11303;50.772;19.670;2023-04-03T07:48:36;6.18;;;3.05;;
22268;SDS011;11303;50.772;19.670;2023-04-03T07:50:39;6.70;;;3.47;;
22268;SDS011;11303;50.772;19.670;2023-04-03T07:52:41;4.47;;;2.10;;
22268;SDS011;11303;50.772;19.670;2023-04-03T07:54:42;3.28;;;1.55;;
22268;SDS011;11303;50.772;19.670;2023-04-03T07:56:44;3.45;;;1.83;;
22268;SDS011;11303;50.772;19.670;2023-04-03T07:58:46;2.67;;;1.33;;
22268;SDS011;11303;50.772;19.670;2023-04-03T08:00:48;5.28;;;1.75;;
22268;SDS011;11303;50.772;19.670;2023-04-03T08:02:49;20.65;;;6.85;;
22268;SDS011;11303;50.772;19.670;2023-04-03T08:04:53;8.57;;;3.15;;
22268;SDS011;11303;50.772;19.670;2023-04-03T08:06:54;8.13;;;3.33;;
22268;SDS011;11303;50.772;19.670;2023-04-03T08:08:56;6.30;;;2.30;;
22268;SDS011;11303;50.772;19.670;2023-04-03T08:10:58;4.40;;;2.05;;
22268;SDS011;11303;50.772;19.670;2023-04-03T08:13:01;4.05;;;1.30;;
22268;SDS011;11303;50.772;19.670;2023-04-03T08:15:02;8.98;;;3.05;;
22268;SDS011;11303;50.772;19.670;2023-04-03T08:17:04;3.70;;;1.92;;
22268;SDS011;11303;50.772;19.670;2023-04-03T08:19:06;3.80;;;1.67;;
22268;SDS011;11303;50.772;19.670;2023-04-03T08:21:19;3.63;;;1.80;;
22268;SDS011;11303;50.772;19.670;2023-04-03T08:23:20;7.93;;;2.47;;
22268;SDS011;11303;50.772;19.670;2023-04-03T08:25:22;9.88;;;4.25;;
22268;SDS011;11303;50.772;19.670;2023-04-03T08:27:23;16.00;;;5.28;;
22268;SDS011;11303;50.772;19.670;2023-04-03T08:29:25;22.38;;;7.95;;
22268;SDS011;11303;50.772;19.670;2023-04-03T08:31:26;10.65;;;4.10;;
22268;SDS011;11303;50.772;19.670;2023-04-03T08:33:28;10.23;;;3.75;;
22268;SDS011;11303;50.772;19.670;2023-04-03T08:35:30;5.55;;;2.92;;
22268;SDS011;11303;50.772;19.670;2023-04-03T08:37:34;7.57;;;3.28;;
22268;SDS011;11303;50.772;19.670;2023-04-03T08:39:35;11.23;;;4.40;;
22268;SDS011;11303;50.772;19.670;2023-04-03T08:41:38;7.85;;;3.20;;
22268;SDS011;11303;50.772;19.670;2023-04-03T08:45:50;6.97;;;2.72;;
22268;SDS011;11303;50.772;19.670;2023-04-03T08:47:55;15.98;;;4.78;;
22268;SDS011;11303;50.772;19.670;2023-04-03T08:50:00;16.00;;;4.43;;
22268;SDS011;11303;50.772;19.670;2023-04-03T08:52:10;6.43;;;2.08;;
22268;SDS011;11303;50.772;19.670;2023-04-03T08:54:31;10.90;;;3.92;;
22268;SDS011;11303;50.772;19.670;2023-04-03T08:56:35;10.65;;;4.13;;
22268;SDS011;11303;50.772;19.670;2023-04-03T08:58:56;9.70;;;3.75;;
22268;SDS011;11303;50.772;19.670;2023-04-03T09:01:02;5.13;;;1.35;;
22268;SDS011;11303;50.772;19.670;2023-04-03T09:03:05;5.45;;;2.55;;
22268;SDS011;11303;50.772;19.670;2023-04-03T09:05:13;2.10;;;1.10;;
22268;SDS011;11303;50.772;19.670;2023-04-03T09:07:17;15.43;;;3.95;;
22268;SDS011;11303;50.772;19.670;2023-04-03T09:18:36;2.60;;;1.17;;
22268;SDS011;11303;50.772;19.670;2023-04-03T09:20:56;7.40;;;2.45;;
22268;SDS011;11303;50.772;19.670;2023-04-03T09:22:59;8.00;;;2.90;;
22268;SDS011;11303;50.772;19.670;2023-04-03T09:25:02;5.53;;;1.80;;
22268;SDS011;11303;50.772;19.670;2023-04-03T09:27:09;1.70;;;1.30;;
22268;SDS011;11303;50.772;19.670;2023-04-03T09:29:14;3.55;;;0.93;;
22268;SDS011;11303;50.772;19.670;2023-04-03T09:31:24;2.08;;;1.30;;
22268;SDS011;11303;50.772;19.670;2023-04-03T09:33:27;8.35;;;3.28;;
22268;SDS011;11303;50.772;19.670;2023-04-03T09:35:30;5.40;;;2.08;;
22268;SDS011;11303;50.772;19.670;2023-04-03T09:37:48;4.05;;;1.55;;
22268;SDS011;11303;50.772;19.670;2023-04-03T09:39:52;3.40;;;1.40;;
22268;SDS011;11303;50.772;19.670;2023-04-03T09:43:58;6.85;;;1.67;;
22268;SDS011;11303;50.772;19.670;2023-04-03T09:46:16;2.78;;;1.50;;
22268;SDS011;11303;50.772;19.670;2023-04-03T09:48:22;9.45;;;2.78;;
22268;SDS011;11303;50.772;19.670;2023-04-03T09:50:24;12.07;;;4.18;;
22268;SDS011;11303;50.772;19.670;2023-04-03T09:52:26;10.30;;;4.10;;
22268;SDS011;11303;50.772;19.670;2023-04-03T09:56:32;3.67;;;2.22;;
22268;SDS011;11303;50.772;19.670;2023-04-03T09:58:38;2.97;;;1.52;;
22268;SDS011;11303;50.772;19.670;2023-04-03T10:00:54;3.00;;;1.92;;
22268;SDS011;11303;50.772;19.670;2023-04-03T10:02:57;3.15;;;1.90;;
22268;SDS011;11303;50.772;19.670;2023-04-03T10:04:59;10.63;;;4.72;;
22268;SDS011;11303;50.772;19.670;2023-04-03T10:07:27;14.20;;;6.05;;
22268;SDS011;11303;50.772;19.670;2023-04-03T10:09:30;6.20;;;3.05;;
22268;SDS011;11303;50.772;19.670;2023-04-03T10:11:31;3.72;;;1.10;;
22268;SDS011;11303;50.772;19.670;2023-04-03T10:13:33;2.58;;;1.67;;
22268;SDS011;11303;50.772;19.670;2023-04-03T10:15:56;5.85;;;2.38;;
22268;SDS011;11303;50.772;19.670;2023-04-03T10:18:00;3.60;;;1.38;;
22268;SDS011;11303;50.772;19.670;2023-04-03T10:24:47;4.57;;;1.70;;
22268;SDS011;11303;50.772;19.670;2023-04-03T10:33:49;5.95;;;2.20;;
22268;SDS011;11303;50.772;19.670;2023-04-03T10:44:31;2.45;;;1.60;;
22268;SDS011;11303;50.772;19.670;2023-04-03T10:46:38;2.83;;;1.58;;
22268;SDS011;11303;50.772;19.670;2023-04-03T10:57:12;12.13;;;4.55;;
22268;SDS011;11303;50.772;19.670;2023-04-03T10:59:28;6.88;;;2.53;;
22268;SDS011;11303;50.772;19.670;2023-04-03T11:01:33;2.30;;;1.77;;
22268;SDS011;11303;50.772;19.670;2023-04-03T11:03:36;5.90;;;3.47;;
22268;SDS011;11303;50.772;19.670;2023-04-03T11:05:45;6.47;;;2.50;;
22268;SDS011;11303;50.772;19.670;2023-04-03T11:07:50;5.90;;;3.35;;
22268;SDS011;11303;50.772;19.670;2023-04-03T11:09:55;7.03;;;4.57;;
22268;SDS011;11303;50.772;19.670;2023-04-03T11:12:01;18.48;;;6.20;;
22268;SDS011;11303;50.772;19.670;2023-04-03T11:14:11;7.00;;;2.72;;
22268;SDS011;11303;50.772;19.670;2023-04-03T11:16:23;9.80;;;3.53;;
22268;SDS011;11303;50.772;19.670;2023-04-03T11:20:36;3.90;;;2.20;;
22268;SDS011;11303;50.772;19.670;2023-04-03T11:22:41;1.75;;;1.38;;
22268;SDS011;11303;50.772;19.670;2023-04-03T11:24:43;11.75;;;4.55;;
22268;SDS011;11303;50.772;19.670;2023-04-03T11:26:47;13.18;;;5.50;;
22268;SDS011;11303;50.772;19.670;2023-04-03T11:28:58;3.60;;;2.38;;
22268;SDS011;11303;50.772;19.670;2023-04-03T11:35:07;5.22;;;2.80;;
22268;SDS011;11303;50.772;19.670;2023-04-03T11:37:29;12.13;;;3.00;;
22268;SDS011;11303;50.772;19.670;2023-04-03T11:39:34;5.43;;;2.00;;
22268;SDS011;11303;50.772;19.670;2023-04-03T11:41:39;9.43;;;3.33;;
22268;SDS011;11303;50.772;19.670;2023-04-03T11:43:41;8.77;;;3.63;;
22268;SDS011;11303;50.772;19.670;2023-04-03T11:47:54;9.23;;;3.53;;
22268;SDS011;11303;50.772;19.670;2023-04-03T11:49:59;5.43;;;3.17;;
22268;SDS011;11303;50.772;19.670;2023-04-03T11:52:01;6.50;;;2.00;;
22268;SDS011;11303;50.772;19.670;2023-04-03T11:56:27;3.10;;;2.00;;
22268;SDS011;11303;50.772;19.670;2023-04-03T11:58:32;5.95;;;2.58;;
22268;SDS011;11303;50.772;19.670;2023-04-03T12:02:44;3.00;;;2.03;;
22268;SDS011;11303;50.772;19.670;2023-04-03T12:07:16;2.47;;;1.55;;
22268;SDS011;11303;50.772;19.670;2023-04-03T12:09:30;2.58;;;1.40;;
22268;SDS011;11303;50.772;19.670;2023-04-03T12:11:32;3.30;;;2.25;;
22268;SDS011;11303;50.772;19.670;2023-04-03T12:13:39;14.68;;;4.43;;
22268;SDS011;11303;50.772;19.670;2023-04-03T12:15:49;3.17;;;1.45;;
22268;SDS011;11303;50.772;19.670;2023-04-03T12:17:51;3.80;;;2.15;;
22268;SDS011;11303;50.772;19.670;2023-04-03T12:19:53;7.60;;;3.80;;
22268;SDS011;11303;50.772;19.670;2023-04-03T12:26:18;1.92;;;1.50;;
22268;SDS011;11303;50.772;19.670;2023-04-03T12:28:20;2.67;;;1.63;;
22268;SDS011;11303;50.772;19.670;2023-04-03T12:30:24;5.13;;;2.25;;
22268;SDS011;11303;50.772;19.670;2023-04-03T12:39:13;10.93;;;4.25;;
22268;SDS011;11303;50.772;19.670;2023-04-03T12:45:28;2.58;;;1.50;;
22268;SDS011;11303;50.772;19.670;2023-04-03T12:47:36;1.42;;;1.15;;
22268;SDS011;11303;50.772;19.670;2023-04-03T12:49:39;6.07;;;2.20;;
22268;SDS011;11303;50.772;19.670;2023-04-03T12:51:44;8.68;;;2.80;;
22268;SDS011;11303;50.772;19.670;2023-04-03T12:53:47;4.07;;;1.92;;
22268;SDS011;11303;50.772;19.670;2023-04-03T12:55:57;20.35;;;6.50;;
22268;SDS011;11303;50.772;19.670;2023-04-03T13:02:27;14.10;;;4.35;;
22268;SDS011;11303;50.772;19.670;2023-04-03T13:04:30;8.88;;;4.18;;
22268;SDS011;11303;50.772;19.670;2023-04-03T13:06:38;4.93;;;2.92;;
22268;SDS011;11303;50.772;19.670;2023-04-03T13:08:48;7.65;;;3.33;;
22268;SDS011;11303;50.772;19.670;2023-04-03T13:10:58;6.43;;;2.67;;
22268;SDS011;11303;50.772;19.670;2023-04-03T13:13:08;3.47;;;1.50;;
22268;SDS011;11303;50.772;19.670;2023-04-03T13:17:24;6.72;;;2.40;;
22268;SDS011;11303;50.772;19.670;2023-04-03T13:19:26;10.77;;;5.30;;
22268;SDS011;11303;50.772;19.670;2023-04-03T13:21:30;8.13;;;2.97;;
22268;SDS011;11303;50.772;19.670;2023-04-03T13:23:36;10.65;;;5.55;;
22268;SDS011;11303;50.772;19.670;2023-04-03T13:25:41;13.80;;;6.05;;
22268;SDS011;11303;50.772;19.670;2023-04-03T13:27:43;9.02;;;2.45;;
22268;SDS011;11303;50.772;19.670;2023-04-03T13:29:49;10.00;;;3.65;;
22268;SDS011;11303;50.772;19.670;2023-04-03T13:31:52;7.18;;;2.80;;
22268;SDS011;11303;50.772;19.670;2023-04-03T13:33:56;13.95;;;7.15;;